Terminal Aerodrome Forecast
Issued by NWS Charleston, WV

Current Version | Previous Version | Graphics & Text | Print | Product List | Glossary On
Versions: 1 2 3 4 5 6 7 8 9 10 11 12 13 14 15 16 17 18 19 20 21 22 23
000
FTUS41 KRLX 152000 AAB
TAFHTS
TAF AMD
KHTS 152002Z 1520/1618 32009KT P6SM BKN035
     FM152300 32009KT P6SM SCT040
     FM160200 33005KT P6SM FEW100
     FM160400 00000KT P6SM SKC
     FM161400 07005KT P6SM SKC=

USA.gov is the U.S. government's official web portal to all federal, state and local government web resources and services.